Henry, Nebraska
Current Conditions -  °F | °C
As of 11:53 AM on Thursday 27 Nov 2014 (Local Time) from KTOR Reporting Station
Clear Clear  
Wind Chill: 50°   Ceiling: Unl
Heat Index: 50°   Visibility: 10mi
Dew Point: 35°   Wind: 6mph
Humidity: 57%   Direction: NA
Pressure: 30.04"   Gusts: NA
Location:  42°N, 104.05°W
Report Text: KTOR 271853Z AUTO VRB05KT 10SM CLR 10/02 A3004 RMK AO2 SLP188 T01000017 $
Loading
Personal Weather Stations






























Interactive Weather Map New forecast layout! Learn more

10-Day Weather Forecast

Advertisements
Track Severe Weather on mobile